Terminal Aerodrome Forecast
Issued by NWS

Home | Current Version | Previous Version | Graphics & Text | Print | Product List | Glossary On
Versions: 1 2 3 4 5 6 7 8 9 10 11 12 13 14 15 16 17 18 19 20
000
FTUS43 KMPX 122300
TAFRNH
TAF
KRNH 122335Z 1300/1324 25004KT P6SM SCT060 BKN120
     FM130300 26004KT P6SM FEW120
     FM130600 28003KT P6SM VCSH FEW060 SCT090
     FM130800 29004KT P6SM SKC
     FM131400 30007KT P6SM SKC
     FM131600 29014G20KT P6SM SCT050=

USA.gov is the U.S. government's official web portal to all federal, state and local government web resources and services.